Hicksville, OH

9:04 PM EDT on October 24, 2014 (GMT -0400)
Hillsdale Municipal | Change Station
CLOSE
Current Station
Airport
Location: Hillsdale,
Elevation: 1181 ft
Nearby Weather Stations

Elev 1181 ft 41.92 °N, 84.59 °W | Updated 10 minutes ago

Mostly Cloudy
Mostly Cloudy
47 °F
Feels Like 47 °F
N
4
Wind Variable Wind from South

Today
High -- | Low -- °F
--% Chance of Precip.
Yesterday
High -- | Low -- °F
Precip. -- in
8:00 AM 6:44 PM
New Moon, 1% visible
Pressure 29.99 in
Visibility 5.0 miles
Clouds Scattered Clouds 3700 ft
Dew Point 47 °F
Humidity 98%
Rainfall 0.00 in
Snow Depth Not available.
UV 0 out of 12
Pollen 1.10 out of 12
Air Quality Not available.
Flu Activity Sporadic
METAR KJYM 250054Z AUTO 19003KT 5SM BR SCT037 08/08 A2999 RMK AO2 T00840081

More Conditions Fewer Conditions

Pressure 29.99 in
Visibility 5.0 miles
Clouds Scattered Clouds 3700 ft
Dew Point 47 °F
Humidity 98%
Rainfall 0.00 in
Snow Depth Not available.
UV 0 out of 12
Pollen 1.10 out of 12
Air Quality Not available.
Flu Activity Sporadic
METAR KJYM 250054Z AUTO 19003KT 5SM BR SCT037 08/08 A2999 RMK AO2 T00840081

More Conditions Fewer Conditions

10-Day Weather Forecast

Almanac

Astronomy

Oct. 24, 2014 Rise Set
Actual Time 8:00 AM EDT 6:44 PM EDT
Civil Twilight 7:32 AM EDT 7:12 PM EDT
Nautical Twilight 7:00 AM EDT 7:45 PM EDT
Astronomical Twilight 6:28 AM EDT 8:17 PM EDT
Moon 8:39 AM EDT (10/24) 7:23 PM EDT (10/24)
Length of Visible Light 11h 40m
Length of Day
10h 43m
Tomorrow will be 2m 33s shorter.
New Moon, 1% of the Moon is Illuminated
Today
New Moon
Oct 30
First Quarter
Nov 6
Full
Nov 14
Last Quarter
Nov 22
New

Today's Extremes

State Highs State Lows

Community

WunderPhotos

Upload Photos

1,764,737 photos uploaded!

WunderBlogs® & News

Nearby

Snow Depth

Station Depth Elevation
No new snow has been reported.

Earthquake Activity

City Distance Mag. Time & Date
No recent earthquake activity has been reported nearby.
Minimum magnitude displayed is 2.5.

Coastal Water Temperatures

Place Temperature
No Stations Reporting

Nearby Weather Stations